Aviation Digital Data Service (ADDS)

Output produced by METARs form (0051 UTC 21 November 2017)
found at http://www.aviationweather.gov/adds/metars/
 
LLBG 210020Z 15008KT 9999 SCT030 16/14 Q1012 TEMPO 20012G25KT 5000 TSRA FEW025CB BKN030 RMK SCT065
TAF LLBG 202318Z 2100/2124 17008KT 9999 SCT030 
     TEMPO 2100/2107 21012G25KT 5000 TSRA FEW025CB BKN030 
     FM210700 26014KT 9999 BKN030 
     TEMPO 2107/2113 27015G25KT 5000 TSRA FEW025CB BKN030 
     BECMG 2116/2118 29006KT SCT030 
     PROB30 2118/2124 RA BKN025 TX20/2111Z TN15/2104Z
       
LLET 201950Z 01007KT CAVOK 21/07 Q1014
TAF LLET 202318Z 2100/2124 02008KT CAVOK 
     PROB40 2104/2114 20008KT 9999 SCT040 
     BECMG 2116/2118 33012KT TX24/2112Z TN15/2104Z
       
TAF LLHA 202315Z 2100/2124 24010KT 9999 SCT030 
     TEMPO 2100/2106 25015G25KT 4000 +TSRAGS FEW020 FEW025CB BKN030 
     FM210600 27015KT 9999 BKN030 
     TEMPO 2106/2112 5000 TSRA FEW025CB BKN030 
     BECMG 2118/2120 29010KT SCT030 
     PROB30 2120/2124 -RA BKN025 TX21/2111Z TN18/2104Z
       
TAF LLIB 201101Z 2012/2112 20008KT 9999 SCT045 
     FM201300 30010KT 9999 SCT035 
     TEMPO 2013/2016 8000 RA FEW025TCU BKN030 
     BECMG 2016/2018 VRB03KT BKN030 
     BECMG 2020/2022 22010KT 8000 RA SCT020TCU BKN025 
     TEMPO 2022/2112 25015KT 4000 TSRA BR FEW015CB SCT020CB BKN025 TX22/2012Z TN11/2104Z
       
LLOV 202050Z VRB03KT CAVOK 14/06 Q1016
TAF LLOV 202320Z 2100/2124 24008KT 9999 FEW040 
     BECMG 2107/2109 34015KT SCT035 
     BECMG 2117/2120 26008KT TX20/2112Z TN11/2104Z
       
LLSD 202050Z 16004KT 120V190 9999 -RA SCT034 SCT042 18/14 Q1013
TAF LLSD 202316Z 2100/2124 20010KT 9999 SCT030 
     TEMPO 2100/2107 23015G25KT 4000 +TSRAGS FEW020 FEW025CB BKN030 
     FM210700 27018KT 9999 BKN030 
     TEMPO 2107/2113 27025G35KT 5000 TSRA FEW025CB BKN030 
     BECMG 2117/2119 23012KT SCT030 
     PROB30 2119/2124 RA BKN025 TX21/2111Z TN17/2104Z
       
LLBG 210020Z 15008KT 9999 SCT030 16/14 Q1012 TEMPO 20012G25KT 5000 TSRA FEW025CB BKN030 RMK SCT065
TAF LLBG 202318Z 2100/2124 17008KT 9999 SCT030 
     TEMPO 2100/2107 21012G25KT 5000 TSRA FEW025CB BKN030 
     FM210700 26014KT 9999 BKN030 
     TEMPO 2107/2113 27015G25KT 5000 TSRA FEW025CB BKN030 
     BECMG 2116/2118 29006KT SCT030 
     PROB30 2118/2124 RA BKN025 TX20/2111Z TN15/2104Z
       
LLET 201950Z 01007KT CAVOK 21/07 Q1014
TAF LLET 202318Z 2100/2124 02008KT CAVOK 
     PROB40 2104/2114 20008KT 9999 SCT040 
     BECMG 2116/2118 33012KT TX24/2112Z TN15/2104Z
       
TAF LLHA 202315Z 2100/2124 24010KT 9999 SCT030 
     TEMPO 2100/2106 25015G25KT 4000 +TSRAGS FEW020 FEW025CB BKN030 
     FM210600 27015KT 9999 BKN030 
     TEMPO 2106/2112 5000 TSRA FEW025CB BKN030 
     BECMG 2118/2120 29010KT SCT030 
     PROB30 2120/2124 -RA BKN025 TX21/2111Z TN18/2104Z
       
TAF LLIB 201101Z 2012/2112 20008KT 9999 SCT045 
     FM201300 30010KT 9999 SCT035 
     TEMPO 2013/2016 8000 RA FEW025TCU BKN030 
     BECMG 2016/2018 VRB03KT BKN030 
     BECMG 2020/2022 22010KT 8000 RA SCT020TCU BKN025 
     TEMPO 2022/2112 25015KT 4000 TSRA BR FEW015CB SCT020CB BKN025 TX22/2012Z TN11/2104Z
       
LLOV 202050Z VRB03KT CAVOK 14/06 Q1016
TAF LLOV 202320Z 2100/2124 24008KT 9999 FEW040 
     BECMG 2107/2109 34015KT SCT035 
     BECMG 2117/2120 26008KT TX20/2112Z TN11/2104Z
       
LLSD 202050Z 16004KT 120V190 9999 -RA SCT034 SCT042 18/14 Q1013
TAF LLSD 202316Z 2100/2124 20010KT 9999 SCT030 
     TEMPO 2100/2107 23015G25KT 4000 +TSRAGS FEW020 FEW025CB BKN030 
     FM210700 27018KT 9999 BKN030 
     TEMPO 2107/2113 27025G35KT 5000 TSRA FEW025CB BKN030 
     BECMG 2117/2119 23012KT SCT030 
     PROB30 2119/2124 RA BKN025 TX21/2111Z TN17/2104Z